createdAt,value
2023-01-21T00:02:08.109Z,78.40
2023-01-21T00:04:47.141Z,75.40
2023-01-21T00:07:20.831Z,69.15
2023-01-21T00:09:58.382Z,79.03
2023-01-21T00:12:35.976Z,79.70
2023-01-21T00:15:11.005Z,76.85
2023-01-21T00:17:51.890Z,72.25
2023-01-21T00:20:27.109Z,79.30
2023-01-21T00:23:05.250Z,78.63
2023-01-21T00:25:43.034Z,81.25
2023-01-21T00:28:19.135Z,82.32
2023-01-21T00:30:54.368Z,79.40
2023-01-21T00:33:33.289Z,83.53
2023-01-21T00:36:09.719Z,71.45
2023-01-21T00:38:45.669Z,73.43
2023-01-21T00:41:21.286Z,69.05
2023-01-21T00:43:57.048Z,75.00
2023-01-21T00:46:34.025Z,73.93
2023-01-21T00:49:12.032Z,70.40
2023-01-21T00:51:47.695Z,76.13
2023-01-21T00:54:21.415Z,78.47
2023-01-21T00:56:56.919Z,77.78
2023-01-21T00:59:36.485Z,84.15
2023-01-21T01:02:11.300Z,81.00
2023-01-21T01:04:49.740Z,84.85
2023-01-21T01:07:25.784Z,65.43
2023-01-21T01:10:00.713Z,72.45
2023-01-21T01:12:36.594Z,73.53
2023-01-21T01:15:15.508Z,69.90
2023-01-21T01:17:54.553Z,77.00
2023-01-21T01:20:33.405Z,72.80
2023-01-21T01:23:07.430Z,70.68
2023-01-21T01:25:41.683Z,82.75
2023-01-21T01:28:17.349Z,84.83
2023-01-21T01:30:54.282Z,87.65
2023-01-21T01:33:31.926Z,91.43
2023-01-21T01:36:10.435Z,93.80
2023-01-21T01:38:47.369Z,83.65
2023-01-21T01:41:22.564Z,90.95
2023-01-21T01:44:03.600Z,93.60
2023-01-21T01:46:41.255Z,84.13
2023-01-21T01:49:18.669Z,97.78
2023-01-21T01:51:59.616Z,78.88
2023-01-21T01:54:37.510Z,86.68
2023-01-21T01:57:16.902Z,56.28
2023-01-21T01:59:51.585Z,87.85
2023-01-21T02:02:28.064Z,93.00
2023-01-21T02:05:01.022Z,73.35
2023-01-21T02:07:40.829Z,89.00
2023-01-21T02:10:17.153Z,91.45
2023-01-21T02:12:52.605Z,68.78
2023-01-21T02:15:33.819Z,86.70
2023-01-21T02:18:13.217Z,56.40
2023-01-21T02:21:00.126Z,68.97
2023-01-21T02:23:46.441Z,71.90
2023-01-21T02:26:28.066Z,64.93
2023-01-21T02:29:36.126Z,70.95
2023-01-21T02:32:42.665Z,73.13
2023-01-21T02:35:17.476Z,66.35
2023-01-21T02:37:57.072Z,65.77
2023-01-21T02:40:35.721Z,70.85
2023-01-21T02:43:11.939Z,71.60
2023-01-21T02:45:50.285Z,52.90
2023-01-21T02:48:26.272Z,39.97
2023-01-21T02:51:02.510Z,54.33
2023-01-21T02:53:40.997Z,61.92
2023-01-21T02:56:18.874Z,48.60
2023-01-21T02:58:57.032Z,55.10
2023-01-21T03:01:47.087Z,51.80
2023-01-21T03:04:43.516Z,55.15
2023-01-21T03:07:19.735Z,58.20
2023-01-21T03:09:58.360Z,62.17
2023-01-21T03:12:35.541Z,46.17
2023-01-21T03:15:24.558Z,39.95
2023-01-21T03:18:02.065Z,41.65
2023-01-21T03:20:38.169Z,48.10
2023-01-21T03:25:53.555Z,39.30
2023-01-21T03:28:30.443Z,44.85
2023-01-21T03:31:06.501Z,57.65
2023-01-21T03:36:20.703Z,49.58
2023-01-21T03:38:55.664Z,53.15
2023-01-21T03:41:35.124Z,52.92
2023-01-21T03:44:12.702Z,56.07
2023-01-21T03:46:50.272Z,36.83
2023-01-21T03:49:26.319Z,45.63
2023-01-21T03:52:01.143Z,39.92
2023-01-21T03:54:35.938Z,48.92
2023-01-21T03:57:16.694Z,58.10
2023-01-21T03:59:47.579Z,55.67
2023-01-21T04:02:23.622Z,60.57
2023-01-21T04:07:33.620Z,54.22
2023-01-21T04:10:12.528Z,53.90
2023-01-21T04:12:46.695Z,55.97
2023-01-21T04:15:24.467Z,43.23
2023-01-21T04:17:59.979Z,50.97
2023-01-21T04:20:37.273Z,47.47
2023-01-21T04:23:14.576Z,53.25
2023-01-21T04:25:51.400Z,53.00
2023-01-21T04:28:26.496Z,44.70
2023-01-21T04:31:06.004Z,55.15
2023-01-21T04:33:40.813Z,51.80
2023-01-21T04:36:17.475Z,51.10
2023-01-21T04:38:54.279Z,47.90
2023-01-21T04:41:29.293Z,47.60
2023-01-21T04:44:04.476Z,47.95
2023-01-21T04:46:41.796Z,45.13
2023-01-21T04:49:19.157Z,51.35
2023-01-21T04:52:01.076Z,49.85
2023-01-21T04:54:37.759Z,54.53
2023-01-21T04:57:14.023Z,48.72
2023-01-21T04:59:51.575Z,51.50
2023-01-21T05:02:29.457Z,55.05
2023-01-21T05:05:05.238Z,53.92
2023-01-21T05:07:40.692Z,51.22
2023-01-21T05:10:19.678Z,56.90
2023-01-21T05:12:58.583Z,57.05
2023-01-21T05:15:33.489Z,47.03
2023-01-21T05:18:11.016Z,47.63
2023-01-21T05:20:48.417Z,44.60
2023-01-21T05:23:23.452Z,51.53
2023-01-21T05:25:58.479Z,51.60
2023-01-21T05:28:35.048Z,48.33
2023-01-21T05:52:46.645Z,47.85
2023-01-21T05:55:56.528Z,49.15
2023-01-21T05:58:43.780Z,42.10
2023-01-21T06:01:31.190Z,41.53
2023-01-21T06:04:30.708Z,41.67
2023-01-21T06:07:28.570Z,37.20
2023-01-21T06:13:46.485Z,40.23
2023-01-21T06:27:07.796Z,39.90
2023-01-21T06:30:16.908Z,37.60
2023-01-21T06:32:55.482Z,39.80
2023-01-21T06:38:30.131Z,41.50
2023-01-21T06:44:10.802Z,43.58
2023-01-21T06:47:00.075Z,42.05
2023-01-21T06:49:37.574Z,37.40
2023-01-21T07:06:57.686Z,42.00
2023-01-21T07:09:36.895Z,36.75
2023-01-21T07:15:16.829Z,37.45
2023-01-21T07:17:54.685Z,38.30
2023-01-21T07:20:29.932Z,36.15
2023-01-21T07:23:07.258Z,32.42
2023-01-21T08:52:21.223Z,30.55
2023-01-21T08:54:59.799Z,29.08
2023-01-21T08:57:40.176Z,32.15
2023-01-21T09:00:24.798Z,32.08
2023-01-21T09:03:00.494Z,30.00
2023-01-21T09:05:52.531Z,33.13
2023-01-21T09:08:41.138Z,34.88
2023-01-21T09:11:20.161Z,27.80
2023-01-21T09:14:04.542Z,29.20
2023-01-21T09:16:48.639Z,30.92
2023-01-21T09:19:32.684Z,28.65
2023-01-21T09:22:11.264Z,30.42
2023-01-21T09:24:53.699Z,25.70
2023-01-21T09:27:33.467Z,22.42
2023-01-21T09:30:15.216Z,24.25
2023-01-21T09:32:53.627Z,24.08
2023-01-21T09:35:34.929Z,23.67
2023-01-21T09:38:08.879Z,22.83
2023-01-21T09:40:54.281Z,21.80
2023-01-21T09:43:37.017Z,20.90
2023-01-21T09:46:18.624Z,18.15
2023-01-21T09:48:53.895Z,19.80
2023-01-21T09:51:37.682Z,21.00
2023-01-21T09:54:18.061Z,18.25
2023-01-21T09:57:20.350Z,17.55
2023-01-21T10:00:15.950Z,17.13
2023-01-21T10:02:54.029Z,14.50
2023-01-21T10:05:58.399Z,15.40
2023-01-21T10:08:31.993Z,15.55
2023-01-21T10:11:14.868Z,14.70
2023-01-21T10:14:01.089Z,15.65
2023-01-21T10:16:40.707Z,15.90
2023-01-21T10:19:19.443Z,16.50
2023-01-21T10:21:57.439Z,16.33
2023-01-21T10:24:35.116Z,17.85
2023-01-21T10:27:13.926Z,15.10
2023-01-21T10:29:52.478Z,13.15
2023-01-21T10:32:30.548Z,11.17
2023-01-21T10:35:05.713Z,11.50
2023-01-21T10:37:42.975Z,11.23
2023-01-21T10:40:44.058Z,10.45
2023-01-21T10:43:24.289Z,12.00
2023-01-21T11:24:39.472Z,13.27
2023-01-21T11:27:29.081Z,14.15
2023-01-21T11:30:31.518Z,13.20
2023-01-21T11:33:25.299Z,12.82
2023-01-21T11:36:02.064Z,14.60
2023-01-21T11:38:43.490Z,13.50
2023-01-21T11:41:41.494Z,11.73
2023-01-21T11:44:23.466Z,14.00
2023-01-21T11:46:59.802Z,18.83
2023-01-21T11:49:38.961Z,12.07
2023-01-21T11:55:27.198Z,10.65
2023-01-21T11:58:14.275Z,12.55
2023-01-21T12:04:06.066Z,11.63
2023-01-21T12:07:03.570Z,10.52
2023-01-21T12:09:46.019Z,12.10
2023-01-21T12:12:48.409Z,12.90
2023-01-21T12:15:58.768Z,9.05
2023-01-21T12:18:46.824Z,12.75
2023-01-21T12:21:27.047Z,11.32
2023-01-21T12:24:05.347Z,9.65
2023-01-21T12:26:43.372Z,11.57
2023-01-21T12:29:37.952Z,9.35
2023-01-21T12:32:07.879Z,11.00
2023-01-21T12:34:50.364Z,11.40
2023-01-21T12:37:34.643Z,10.75
2023-01-21T12:43:29.078Z,11.48
2023-01-21T12:46:20.253Z,13.30
2023-01-21T12:49:04.597Z,13.57
2023-01-21T12:52:02.012Z,11.05
2023-01-21T12:54:39.675Z,12.80
2023-01-21T12:57:19.687Z,15.63
2023-01-21T13:00:01.028Z,16.20
2023-01-21T13:02:40.315Z,15.35
2023-01-21T13:05:17.752Z,17.50
2023-01-21T13:08:00.006Z,19.75
2023-01-21T13:10:40.197Z,22.98
2023-01-21T13:13:22.719Z,15.63
2023-01-21T13:16:02.041Z,17.15
2023-01-21T13:18:40.897Z,16.00
2023-01-21T13:21:21.970Z,16.60
2023-01-21T13:24:03.493Z,14.43
2023-01-21T13:26:42.957Z,12.80
2023-01-21T13:29:23.939Z,12.30
2023-01-21T13:32:14.737Z,13.50
2023-01-21T13:34:54.327Z,12.43
2023-01-21T13:37:36.552Z,16.95
2023-01-21T13:40:15.911Z,13.35
2023-01-21T13:42:59.775Z,13.50
2023-01-21T13:45:40.946Z,13.80
2023-01-21T13:48:29.518Z,17.05
2023-01-21T13:51:23.854Z,20.20
2023-01-21T13:53:59.021Z,16.30
2023-01-21T13:56:52.493Z,15.95
2023-01-21T13:59:37.980Z,12.07
2023-01-21T14:02:32.204Z,12.25
2023-01-21T14:05:10.153Z,11.90
2023-01-21T14:07:51.587Z,12.45
2023-01-21T14:10:32.099Z,12.52
2023-01-21T14:13:26.664Z,12.85
2023-01-21T14:16:40.699Z,12.05
2023-01-21T14:19:24.662Z,14.60
2023-01-21T14:22:09.713Z,14.13
2023-01-21T14:25:02.271Z,13.35
2023-01-21T14:27:37.598Z,12.65
2023-01-21T14:30:14.950Z,12.80
2023-01-21T14:32:50.185Z,11.83
2023-01-21T14:35:27.891Z,10.90
2023-01-21T14:38:06.876Z,18.20
2023-01-21T14:40:41.547Z,14.18
2023-01-21T14:43:18.007Z,14.13
2023-01-21T14:45:57.011Z,13.80
2023-01-21T14:48:34.726Z,14.97
2023-01-21T14:51:28.991Z,16.17
2023-01-21T14:54:04.809Z,16.05
2023-01-21T14:56:37.772Z,19.17
2023-01-21T14:59:10.705Z,19.90
2023-01-21T15:01:46.844Z,20.65
2023-01-21T15:07:05.977Z,20.30
2023-01-21T15:09:39.326Z,24.02
2023-01-21T15:12:15.951Z,19.58
2023-01-21T15:14:48.631Z,24.67
2023-01-21T15:17:48.759Z,25.50
2023-01-21T15:20:51.388Z,21.73
2023-01-21T15:23:42.671Z,24.00
2023-01-21T15:26:25.552Z,26.83
2023-01-21T15:28:59.886Z,24.45
2023-01-21T15:31:46.237Z,24.88
2023-01-21T15:34:18.544Z,19.33
2023-01-21T15:36:57.408Z,21.00
2023-01-21T15:39:35.857Z,27.90
2023-01-21T15:42:16.984Z,36.95
2023-01-21T15:44:59.977Z,29.23
2023-01-21T15:47:59.103Z,34.47
2023-01-21T15:50:35.341Z,25.15
2023-01-21T15:53:20.327Z,29.55
2023-01-21T15:56:13.748Z,27.50
2023-01-21T15:58:51.991Z,25.80
2023-01-21T16:01:27.073Z,25.02
2023-01-21T16:04:20.246Z,26.60
2023-01-21T16:07:03.076Z,23.00
2023-01-21T16:09:38.526Z,23.65
2023-01-21T16:12:17.767Z,27.58
2023-01-21T16:15:01.606Z,25.55
2023-01-21T16:17:43.319Z,28.30
2023-01-21T16:20:16.855Z,29.95
2023-01-21T16:22:49.617Z,27.43
2023-01-21T16:25:23.317Z,29.03
2023-01-21T16:27:57.953Z,30.17
2023-01-21T16:30:32.124Z,26.95
2023-01-21T16:33:14.222Z,29.00
2023-01-21T16:35:47.925Z,30.80
2023-01-21T16:38:23.419Z,34.20
2023-01-21T16:40:57.484Z,32.40
2023-01-21T16:43:33.677Z,40.20
2023-01-21T16:46:07.712Z,35.78
2023-01-21T16:48:39.595Z,33.83
2023-01-21T16:51:18.107Z,42.03
2023-01-21T16:53:52.676Z,42.15
2023-01-21T16:56:29.039Z,36.60
2023-01-21T16:59:04.368Z,37.00
2023-01-21T17:01:39.134Z,39.05
2023-01-21T17:04:12.161Z,46.70
2023-01-21T17:06:44.863Z,44.30
2023-01-21T17:09:28.542Z,44.15
2023-01-21T17:12:02.270Z,42.60
2023-01-21T17:14:36.667Z,40.03
2023-01-21T17:17:10.544Z,42.90
2023-01-21T17:19:45.025Z,35.97
2023-01-21T17:22:19.510Z,43.50
2023-01-21T17:25:04.483Z,39.78
2023-01-21T17:27:38.576Z,35.42
2023-01-21T17:30:32.286Z,39.50
2023-01-21T17:33:05.177Z,40.08
2023-01-21T17:35:36.755Z,44.38
2023-01-21T17:38:11.046Z,35.33
2023-01-21T17:40:44.351Z,37.13
2023-01-21T17:43:22.611Z,38.90
2023-01-21T17:45:59.694Z,41.10
2023-01-21T17:48:35.596Z,46.13
2023-01-21T17:51:10.717Z,46.60
2023-01-21T17:53:46.438Z,52.83
2023-01-21T17:56:19.643Z,51.60
2023-01-21T17:58:53.336Z,57.17
2023-01-21T18:01:29.871Z,44.30
2023-01-21T18:04:02.848Z,36.30
2023-01-21T18:06:36.354Z,47.25
2023-01-21T18:09:11.705Z,60.35
2023-01-21T18:11:45.614Z,45.10
2023-01-21T18:14:20.353Z,46.08
2023-01-21T18:16:57.992Z,46.55
2023-01-21T18:19:32.364Z,63.05
2023-01-21T18:22:07.621Z,58.15
2023-01-21T18:24:45.777Z,49.30
2023-01-21T18:27:25.972Z,49.63
2023-01-21T18:30:07.121Z,45.30
2023-01-21T18:32:50.935Z,42.80
2023-01-21T18:35:29.486Z,38.40
2023-01-21T18:38:12.382Z,38.58
2023-01-21T18:40:53.263Z,34.22
2023-01-21T18:43:27.471Z,39.53
2023-01-21T18:46:06.362Z,31.50
2023-01-21T18:54:08.200Z,43.23
2023-01-21T18:56:49.213Z,41.03
2023-01-21T18:59:41.458Z,38.77
2023-01-21T19:04:58.407Z,39.63
2023-01-21T19:07:38.662Z,44.23
2023-01-21T19:10:19.600Z,44.73
2023-01-21T19:12:53.413Z,52.50
2023-01-21T19:15:31.621Z,46.95
2023-01-21T19:18:15.626Z,53.43
2023-01-21T19:20:51.172Z,57.85
2023-01-21T19:23:35.193Z,51.65
2023-01-21T19:26:32.006Z,46.80
2023-01-21T19:29:08.586Z,50.50
2023-01-21T19:31:47.160Z,53.25
2023-01-21T19:34:43.188Z,47.13
2023-01-21T19:40:27.633Z,61.60
2023-01-21T20:02:12.136Z,59.78
2023-01-21T20:05:04.066Z,55.35
2023-01-21T20:07:43.522Z,80.18
2023-01-21T20:13:40.455Z,77.05
2023-01-21T20:25:52.605Z,53.30
2023-01-21T20:31:57.852Z,43.20
2023-01-21T20:34:43.443Z,58.00
2023-01-21T20:37:49.220Z,63.67
2023-01-21T21:24:01.323Z,84.20
2023-01-21T21:43:02.245Z,92.27
2023-01-21T21:58:23.091Z,90.90
2023-01-21T22:01:17.177Z,106.30
2023-01-21T22:07:03.020Z,111.55
2023-01-21T22:16:19.070Z,72.38
2023-01-21T22:19:01.521Z,74.53
2023-01-21T22:21:37.286Z,70.80
2023-01-21T22:27:20.178Z,76.35
2023-01-21T22:39:30.148Z,68.05
2023-01-21T22:48:19.824Z,114.03
2023-01-21T23:00:41.713Z,81.70
2023-01-21T23:03:19.482Z,71.90
2023-01-21T23:06:15.249Z,82.10
2023-01-21T23:08:52.689Z,60.47
2023-01-21T23:11:30.011Z,83.72
2023-01-21T23:14:04.922Z,89.00
2023-01-21T23:16:54.101Z,81.25
2023-01-21T23:19:38.454Z,89.30
2023-01-21T23:22:15.204Z,74.77
2023-01-21T23:24:54.161Z,79.93
2023-01-21T23:27:29.700Z,81.28
2023-01-21T23:30:04.597Z,62.20
2023-01-21T23:33:03.586Z,88.00
2023-01-21T23:35:43.293Z,87.55
2023-01-21T23:38:23.213Z,61.90
2023-01-21T23:40:55.806Z,60.92
2023-01-21T23:43:34.490Z,87.40
2023-01-21T23:46:08.139Z,83.00
2023-01-21T23:48:45.130Z,71.47
2023-01-21T23:51:25.297Z,64.67
2023-01-21T23:54:06.409Z,84.87
2023-01-21T23:56:41.955Z,114.80
2023-01-21T23:59:15.276Z,96.95
